createdAt,value
2017-10-15T00:00:42.663Z,35.90
2017-10-15T00:03:08.935Z,35.00
2017-10-15T00:05:35.189Z,36.60
2017-10-15T00:08:02.287Z,35.00
2017-10-15T00:10:28.602Z,34.53
2017-10-15T00:12:54.871Z,37.20
2017-10-15T00:15:21.212Z,37.30
2017-10-15T00:17:47.507Z,38.03
2017-10-15T00:20:13.762Z,35.70
2017-10-15T00:22:40.810Z,38.00
2017-10-15T00:25:07.835Z,37.23
2017-10-15T00:27:34.106Z,39.70
2017-10-15T00:30:01.138Z,38.20
2017-10-15T00:32:27.425Z,38.33
2017-10-15T00:34:53.702Z,36.53
2017-10-15T00:37:20.006Z,35.60
2017-10-15T00:39:46.274Z,35.87
2017-10-15T00:42:12.800Z,39.97
2017-10-15T00:44:39.100Z,34.83
2017-10-15T00:47:05.368Z,35.10
2017-10-15T00:49:31.684Z,35.33
2017-10-15T00:51:58.010Z,38.43
2017-10-15T00:54:24.295Z,35.83
2017-10-15T00:56:51.308Z,37.77
2017-10-15T00:59:17.651Z,34.00
2017-10-15T01:01:44.012Z,36.37
2017-10-15T01:04:11.050Z,39.40
2017-10-15T01:06:37.406Z,35.23
2017-10-15T01:09:04.457Z,35.67
2017-10-15T01:11:30.765Z,36.30
2017-10-15T01:13:57.078Z,36.10
2017-10-15T01:16:23.381Z,34.53
2017-10-15T01:18:50.411Z,35.37
2017-10-15T01:21:16.736Z,33.97
2017-10-15T01:23:43.078Z,37.63
2017-10-15T01:26:09.358Z,37.10
2017-10-15T01:28:36.404Z,38.60
2017-10-15T01:31:02.677Z,36.17
2017-10-15T01:33:28.963Z,38.13
2017-10-15T01:35:55.989Z,41.37
2017-10-15T01:38:22.271Z,41.03
2017-10-15T01:40:48.531Z,35.70
2017-10-15T01:43:15.090Z,37.67
2017-10-15T01:45:41.363Z,38.90
2017-10-15T01:48:07.610Z,36.73
2017-10-15T01:50:33.919Z,41.13
2017-10-15T01:53:01.662Z,37.70
2017-10-15T01:55:27.964Z,40.90
2017-10-15T01:57:54.995Z,37.80
2017-10-15T02:00:21.258Z,36.60
2017-10-15T02:02:48.255Z,38.23
2017-10-15T02:05:14.558Z,38.33
2017-10-15T02:07:40.826Z,38.90
2017-10-15T02:10:07.117Z,40.47
2017-10-15T02:12:34.184Z,42.77
2017-10-15T02:15:00.484Z,39.27
2017-10-15T02:17:26.759Z,38.17
2017-10-15T02:19:53.067Z,40.13
2017-10-15T02:22:20.071Z,38.73
2017-10-15T02:24:46.345Z,38.13
2017-10-15T02:27:12.604Z,41.17
2017-10-15T02:29:38.893Z,40.70
2017-10-15T02:32:05.132Z,41.90
2017-10-15T02:34:31.430Z,41.80
2017-10-15T02:36:57.688Z,40.47
2017-10-15T02:39:23.941Z,42.70
2017-10-15T02:41:50.437Z,39.80
2017-10-15T02:44:16.877Z,43.80
2017-10-15T02:46:43.133Z,40.87
2017-10-15T02:49:09.477Z,39.57
2017-10-15T02:51:35.802Z,40.47
2017-10-15T02:54:02.088Z,41.27
2017-10-15T02:56:28.379Z,43.00
2017-10-15T02:58:54.681Z,42.30
2017-10-15T03:01:21.667Z,41.33
2017-10-15T03:03:47.954Z,40.07
2017-10-15T03:06:14.951Z,45.17
2017-10-15T03:08:41.215Z,41.60
2017-10-15T03:11:08.990Z,40.30
2017-10-15T03:13:35.242Z,41.90
2017-10-15T03:16:02.267Z,38.63
2017-10-15T03:18:30.063Z,35.07
2017-10-15T03:20:57.077Z,34.03
2017-10-15T03:23:23.331Z,34.10
2017-10-15T03:25:49.636Z,33.67
2017-10-15T03:28:15.911Z,32.77
2017-10-15T03:30:42.196Z,34.03
2017-10-15T03:33:08.495Z,33.10
2017-10-15T03:35:35.495Z,32.70
2017-10-15T03:38:01.862Z,32.03
2017-10-15T03:40:28.255Z,31.60
2017-10-15T03:42:54.545Z,30.77
2017-10-15T03:45:21.642Z,32.67
2017-10-15T03:47:47.908Z,31.07
2017-10-15T03:50:14.181Z,30.67
2017-10-15T03:52:40.422Z,32.90
2017-10-15T03:55:07.455Z,32.67
2017-10-15T03:57:33.767Z,33.67
2017-10-15T04:00:00.058Z,32.60
2017-10-15T04:02:26.361Z,33.43
2017-10-15T04:04:54.106Z,34.80
2017-10-15T04:07:20.387Z,34.27
2017-10-15T04:09:47.484Z,32.80
2017-10-15T04:12:13.759Z,32.93
2017-10-15T04:14:40.038Z,34.60
2017-10-15T04:17:13.514Z,32.77
2017-10-15T04:19:40.529Z,31.63
2017-10-15T04:22:06.818Z,32.60
2017-10-15T04:24:33.863Z,33.10
2017-10-15T04:27:00.132Z,34.50
2017-10-15T04:29:26.427Z,34.60
2017-10-15T04:31:53.508Z,36.50
2017-10-15T04:34:19.763Z,35.80
2017-10-15T04:36:46.025Z,37.73
2017-10-15T04:39:12.319Z,36.33
2017-10-15T04:41:38.601Z,37.10
2017-10-15T04:44:04.874Z,36.10
2017-10-15T04:46:31.356Z,34.43
2017-10-15T04:48:57.610Z,36.80
2017-10-15T04:51:23.866Z,34.77
2017-10-15T04:53:50.915Z,35.97
2017-10-15T04:56:17.959Z,36.77
2017-10-15T04:58:44.988Z,35.90
2017-10-15T05:01:11.315Z,32.20
2017-10-15T05:03:37.594Z,35.43
2017-10-15T05:06:04.631Z,34.80
2017-10-15T05:08:32.405Z,37.40
2017-10-15T05:10:59.410Z,37.30
2017-10-15T05:13:25.683Z,38.37
2017-10-15T05:15:51.983Z,37.87
2017-10-15T05:18:18.259Z,38.00
2017-10-15T05:20:45.320Z,39.70
2017-10-15T05:23:11.611Z,41.80
2017-10-15T05:25:37.879Z,39.57
2017-10-15T05:28:05.640Z,41.40
2017-10-15T05:30:31.934Z,42.30
2017-10-15T05:32:58.194Z,42.20
2017-10-15T05:35:24.501Z,40.33
2017-10-15T05:37:50.793Z,42.30
2017-10-15T05:40:18.570Z,41.17
2017-10-15T05:42:44.842Z,42.00
2017-10-15T05:45:11.134Z,42.57
2017-10-15T05:47:37.540Z,45.00
2017-10-15T05:50:03.863Z,43.53
2017-10-15T05:52:30.178Z,42.73
2017-10-15T05:54:57.172Z,43.83
2017-10-15T05:57:23.443Z,43.03
2017-10-15T05:59:50.491Z,43.30
2017-10-15T06:02:17.534Z,43.20
2017-10-15T06:04:45.296Z,43.33
2017-10-15T06:07:11.602Z,42.13
2017-10-15T06:09:37.886Z,42.93
2017-10-15T06:12:04.920Z,45.20
2017-10-15T06:14:31.234Z,42.77
2017-10-15T06:16:57.515Z,41.20
2017-10-15T06:19:23.794Z,38.53
2017-10-15T06:21:50.150Z,37.33
2017-10-15T06:24:16.448Z,41.33
2017-10-15T06:26:43.443Z,39.80
2017-10-15T06:29:09.831Z,36.87
2017-10-15T06:31:36.838Z,37.17
2017-10-15T06:34:03.097Z,37.77
2017-10-15T06:36:29.390Z,35.10
2017-10-15T06:38:55.667Z,33.40
2017-10-15T06:41:22.714Z,33.90
2017-10-15T06:43:48.974Z,35.10
2017-10-15T06:46:15.994Z,33.23
2017-10-15T06:48:42.572Z,35.37
2017-10-15T06:51:09.609Z,32.60
2017-10-15T06:53:36.657Z,33.10
2017-10-15T06:56:02.931Z,31.90
2017-10-15T06:58:29.248Z,33.90
2017-10-15T07:00:56.255Z,32.30
2017-10-15T07:03:22.528Z,33.93
2017-10-15T07:05:48.875Z,34.67
2017-10-15T07:08:15.916Z,32.90
2017-10-15T07:10:43.663Z,36.23
2017-10-15T07:13:09.947Z,35.10
2017-10-15T07:15:36.228Z,31.67
2017-10-15T07:18:02.503Z,34.50
2017-10-15T07:20:28.804Z,33.87
2017-10-15T07:22:55.071Z,31.57
2017-10-15T07:25:22.079Z,33.67
2017-10-15T07:27:48.386Z,33.53
2017-10-15T07:30:14.665Z,32.23
2017-10-15T07:32:40.959Z,33.10
2017-10-15T07:35:07.247Z,35.57
2017-10-15T07:37:33.523Z,36.93
2017-10-15T07:39:59.810Z,34.47
2017-10-15T07:42:26.173Z,34.80
2017-10-15T07:44:52.475Z,34.77
2017-10-15T07:47:18.738Z,36.57
2017-10-15T07:49:45.270Z,35.50
2017-10-15T07:52:11.561Z,36.90
2017-10-15T07:54:37.855Z,35.47
2017-10-15T07:57:04.150Z,33.47
2017-10-15T07:59:30.403Z,35.83
2017-10-15T08:01:56.676Z,35.07
2017-10-15T08:04:23.707Z,37.20
2017-10-15T08:06:49.972Z,38.80
2017-10-15T08:09:16.352Z,40.03
2017-10-15T08:11:42.787Z,35.53
2017-10-15T08:14:09.087Z,34.30
2017-10-15T08:16:36.170Z,37.90
2017-10-15T08:19:02.494Z,35.53
2017-10-15T08:21:28.779Z,39.67
2017-10-15T08:23:55.044Z,39.07
2017-10-15T08:26:21.370Z,37.30
2017-10-15T08:28:47.654Z,36.23
2017-10-15T08:31:14.658Z,37.13
2017-10-15T08:33:41.728Z,39.33
2017-10-15T08:36:08.211Z,37.60
2017-10-15T08:38:35.363Z,37.13
2017-10-15T08:41:01.623Z,35.03
2017-10-15T08:43:27.906Z,38.60
2017-10-15T08:45:54.306Z,39.20
2017-10-15T08:48:20.650Z,41.80
2017-10-15T08:50:47.937Z,39.50
2017-10-15T08:53:14.211Z,39.40
2017-10-15T08:55:40.503Z,40.27
2017-10-15T08:58:06.755Z,37.60
2017-10-15T09:00:33.053Z,37.90
2017-10-15T09:03:00.087Z,37.23
2017-10-15T09:05:26.498Z,38.67
2017-10-15T09:07:53.549Z,38.13
2017-10-15T09:10:19.845Z,39.80
2017-10-15T09:12:46.873Z,37.43
2017-10-15T09:15:13.145Z,36.03
2017-10-15T09:17:39.456Z,38.10
2017-10-15T09:20:06.533Z,39.03
2017-10-15T09:22:32.816Z,39.00
2017-10-15T09:25:00.680Z,41.30
2017-10-15T09:27:26.926Z,40.90
2017-10-15T09:29:53.187Z,39.17
2017-10-15T09:32:20.223Z,39.20
2017-10-15T09:34:47.987Z,44.07
2017-10-15T09:37:14.286Z,38.47
2017-10-15T09:39:40.563Z,38.03
2017-10-15T09:42:07.611Z,41.53
2017-10-15T09:44:33.912Z,39.17
2017-10-15T09:47:00.220Z,41.13
2017-10-15T09:49:27.231Z,41.57
2017-10-15T09:51:53.712Z,43.60
2017-10-15T09:54:20.029Z,39.00
2017-10-15T09:56:47.072Z,40.40
2017-10-15T09:59:13.338Z,47.23
2017-10-15T10:01:40.386Z,45.07
2017-10-15T10:04:07.409Z,45.40
2017-10-15T10:06:33.719Z,42.13
2017-10-15T10:09:00.055Z,41.40
2017-10-15T10:11:26.308Z,45.80
2017-10-15T10:13:52.554Z,39.13
2017-10-15T10:16:20.342Z,43.70
2017-10-15T10:18:46.599Z,48.03
2017-10-15T10:21:12.906Z,47.83
2017-10-15T10:23:40.675Z,46.63
2017-10-15T10:26:07.707Z,45.53
2017-10-15T10:28:34.009Z,44.57
2017-10-15T10:31:01.110Z,47.20
2017-10-15T10:33:28.114Z,40.47
2017-10-15T10:35:54.379Z,44.83
2017-10-15T10:38:20.650Z,44.43
2017-10-15T10:40:47.671Z,43.17
2017-10-15T10:43:13.925Z,45.87
2017-10-15T10:45:40.983Z,41.83
2017-10-15T10:48:07.999Z,47.77
2017-10-15T10:50:34.297Z,46.80
2017-10-15T10:53:00.771Z,44.60
2017-10-15T10:55:27.039Z,49.70
2017-10-15T10:57:53.299Z,45.83
2017-10-15T11:00:20.480Z,44.10
2017-10-15T11:02:46.752Z,44.97
2017-10-15T11:05:13.767Z,44.07
2017-10-15T11:07:40.136Z,38.43
2017-10-15T11:10:06.403Z,40.83
2017-10-15T11:12:32.663Z,40.73
2017-10-15T11:14:58.986Z,38.50
2017-10-15T11:17:25.251Z,41.13
2017-10-15T11:19:51.506Z,38.90
2017-10-15T11:22:17.794Z,33.53
2017-10-15T11:24:44.802Z,37.67
2017-10-15T11:27:11.096Z,37.07
2017-10-15T11:29:37.358Z,34.77
2017-10-15T11:32:03.620Z,34.37
2017-10-15T11:34:29.864Z,35.17
2017-10-15T11:36:56.950Z,33.57
2017-10-15T11:39:23.215Z,33.30
2017-10-15T11:41:49.482Z,32.57
2017-10-15T11:44:15.772Z,30.97
2017-10-15T11:46:42.026Z,33.10
2017-10-15T11:49:08.290Z,31.10
2017-10-15T11:51:35.348Z,32.50
2017-10-15T11:54:01.736Z,31.07
2017-10-15T11:56:28.066Z,29.10
2017-10-15T11:58:54.386Z,26.77
2017-10-15T12:01:21.411Z,29.33
2017-10-15T12:03:48.437Z,25.37
2017-10-15T12:06:14.819Z,20.57
2017-10-15T12:08:41.247Z,18.63
2017-10-15T12:11:07.530Z,15.27
2017-10-15T12:13:33.842Z,17.40
2017-10-15T12:16:00.125Z,14.00
2017-10-15T12:18:26.423Z,14.20
2017-10-15T12:20:52.844Z,13.40
2017-10-15T12:23:19.854Z,11.10
2017-10-15T12:25:46.903Z,9.93
2017-10-15T12:28:13.239Z,11.33
2017-10-15T12:30:39.539Z,9.77
2017-10-15T12:33:05.839Z,9.20
2017-10-15T12:35:32.167Z,9.90
2017-10-15T12:37:58.435Z,9.80
2017-10-15T12:40:24.763Z,8.70
2017-10-15T12:42:51.896Z,8.50
2017-10-15T12:45:18.976Z,9.00
2017-10-15T12:47:45.501Z,9.57
2017-10-15T12:50:11.905Z,8.80
2017-10-15T12:52:38.162Z,8.33
2017-10-15T12:55:05.405Z,8.37
2017-10-15T12:57:31.719Z,8.17
2017-10-15T12:59:58.018Z,8.23
2017-10-15T13:02:25.042Z,8.17
2017-10-15T13:04:51.352Z,8.60
2017-10-15T13:07:17.634Z,9.00
2017-10-15T13:09:43.883Z,7.60
2017-10-15T13:12:11.162Z,7.33
2017-10-15T13:14:37.447Z,9.60
2017-10-15T13:17:03.741Z,5.80
2017-10-15T13:19:30.029Z,6.70
2017-10-15T13:21:57.048Z,6.43
2017-10-15T13:24:23.328Z,7.17
2017-10-15T13:26:50.379Z,7.23
2017-10-15T13:29:16.661Z,6.97
2017-10-15T13:31:42.927Z,5.83
2017-10-15T13:34:09.197Z,5.30
2017-10-15T13:36:36.220Z,5.60
2017-10-15T13:39:02.516Z,5.77
2017-10-15T13:41:28.807Z,5.43
2017-10-15T13:43:55.091Z,5.77
2017-10-15T13:46:21.337Z,4.97
2017-10-15T13:48:47.751Z,6.00
2017-10-15T13:51:14.081Z,6.00
2017-10-15T13:53:40.372Z,6.70
2017-10-15T13:56:06.753Z,8.50
2017-10-15T13:58:33.034Z,6.87
2017-10-15T14:00:59.334Z,5.20
2017-10-15T14:03:25.620Z,6.70
2017-10-15T14:05:51.878Z,6.50
2017-10-15T14:08:18.907Z,5.60
2017-10-15T14:10:45.168Z,6.60
2017-10-15T14:13:12.175Z,5.63
2017-10-15T14:15:38.430Z,5.67
2017-10-15T14:18:04.818Z,5.97
2017-10-15T14:20:31.102Z,5.27
2017-10-15T14:22:57.404Z,5.70
2017-10-15T14:25:23.720Z,5.50
2017-10-15T14:27:50.002Z,5.43
2017-10-15T14:30:16.286Z,6.00
2017-10-15T14:32:42.746Z,6.83
2017-10-15T14:35:09.023Z,5.70
2017-10-15T14:37:35.308Z,5.90
2017-10-15T14:40:01.625Z,6.70
2017-10-15T14:42:27.904Z,6.47
2017-10-15T14:44:54.167Z,6.53
2017-10-15T14:47:20.466Z,5.80
2017-10-15T14:49:46.747Z,6.30
2017-10-15T14:52:13.012Z,5.73
2017-10-15T14:54:39.431Z,8.07
2017-10-15T14:57:05.891Z,7.30
2017-10-15T14:59:32.148Z,6.80
2017-10-15T15:01:58.427Z,5.80
2017-10-15T15:04:24.706Z,7.03
2017-10-15T15:06:50.995Z,7.63
2017-10-15T15:09:17.378Z,6.07
2017-10-15T15:11:43.727Z,7.37
2017-10-15T15:14:09.983Z,8.60
2017-10-15T15:16:36.268Z,7.53
2017-10-15T15:19:03.259Z,7.30
2017-10-15T15:21:29.531Z,7.97
2017-10-15T15:23:55.843Z,6.70
2017-10-15T15:26:22.143Z,7.43
2017-10-15T15:28:48.419Z,7.13
2017-10-15T15:31:14.691Z,7.43
2017-10-15T15:33:40.984Z,6.93
2017-10-15T15:36:07.247Z,7.10
2017-10-15T15:38:34.328Z,7.53
2017-10-15T15:41:00.643Z,7.40
2017-10-15T15:43:26.899Z,6.87
2017-10-15T15:45:53.938Z,6.10
2017-10-15T15:48:20.223Z,6.20
2017-10-15T15:50:46.495Z,7.90
2017-10-15T15:53:12.788Z,7.17
2017-10-15T15:55:39.917Z,7.87
2017-10-15T15:58:06.470Z,6.80
2017-10-15T16:00:32.768Z,7.23
2017-10-15T16:02:59.018Z,6.90
2017-10-15T16:05:25.286Z,7.13
2017-10-15T16:07:51.587Z,7.03
2017-10-15T16:10:18.594Z,7.23
2017-10-15T16:12:44.851Z,8.10
2017-10-15T16:15:11.161Z,9.00
2017-10-15T16:17:37.415Z,8.93
2017-10-15T16:20:03.698Z,8.20
2017-10-15T16:22:30.718Z,7.77
2017-10-15T16:24:56.998Z,7.27
2017-10-15T16:27:23.266Z,6.90
2017-10-15T16:29:49.577Z,6.80
2017-10-15T16:32:15.814Z,7.20
2017-10-15T16:34:42.110Z,9.10
2017-10-15T16:37:09.156Z,7.13
2017-10-15T16:39:36.146Z,9.60
2017-10-15T16:42:02.437Z,10.00
2017-10-15T16:44:28.715Z,12.83
2017-10-15T16:46:54.998Z,10.00
2017-10-15T16:49:21.242Z,9.87
2017-10-15T16:51:47.531Z,10.27
2017-10-15T16:54:13.934Z,9.47
2017-10-15T16:56:40.954Z,15.83
2017-10-15T16:59:07.336Z,13.10
2017-10-15T17:01:33.615Z,11.43
2017-10-15T17:03:59.882Z,14.30
2017-10-15T17:06:27.184Z,11.17
2017-10-15T17:08:53.434Z,10.97
2017-10-15T17:11:19.704Z,12.10
2017-10-15T17:13:46.020Z,11.57
2017-10-15T17:16:12.279Z,8.80
2017-10-15T17:18:38.541Z,7.93
2017-10-15T17:21:05.702Z,13.67
2017-10-15T17:23:32.002Z,34.27
2017-10-15T17:26:07.222Z,12.60
2017-10-15T17:28:33.472Z,38.97
2017-10-15T17:30:59.770Z,34.33
2017-10-15T17:33:26.208Z,48.83
2017-10-15T17:35:52.813Z,17.27
2017-10-15T17:38:19.127Z,12.53
2017-10-15T17:40:45.515Z,30.77
2017-10-15T17:43:11.798Z,51.70
2017-10-15T17:45:38.827Z,35.37
2017-10-15T17:48:05.150Z,33.73
2017-10-15T17:50:31.416Z,44.73
2017-10-15T17:52:57.662Z,24.33
2017-10-15T17:55:24.001Z,24.70
2017-10-15T17:57:51.010Z,22.60
2017-10-15T18:00:17.427Z,28.43
2017-10-15T18:02:44.476Z,41.23
2017-10-15T18:05:11.469Z,75.33
2017-10-15T18:07:37.818Z,27.50
2017-10-15T18:10:04.291Z,32.23
2017-10-15T18:12:31.328Z,26.10
2017-10-15T18:14:57.566Z,16.90
2017-10-15T18:17:23.843Z,12.43
2017-10-15T18:19:50.131Z,10.60
2017-10-15T18:22:17.203Z,9.50
2017-10-15T18:24:44.248Z,9.80
2017-10-15T18:27:10.571Z,8.17
2017-10-15T18:29:36.905Z,8.40
2017-10-15T18:32:03.953Z,9.47
2017-10-15T18:34:30.228Z,9.30
2017-10-15T18:36:57.239Z,9.10
2017-10-15T18:39:23.512Z,9.17
2017-10-15T18:41:50.549Z,9.53
2017-10-15T18:44:16.829Z,9.07
2017-10-15T18:46:43.165Z,11.43
2017-10-15T18:49:09.431Z,10.63
2017-10-15T18:51:35.740Z,11.50
2017-10-15T18:54:02.042Z,10.50
2017-10-15T18:56:29.290Z,10.00
2017-10-15T18:58:56.340Z,10.43
2017-10-15T19:01:24.412Z,8.70
2017-10-15T19:03:50.712Z,8.80
2017-10-15T19:06:17.146Z,9.83
2017-10-15T19:08:43.480Z,9.23
2017-10-15T19:11:09.771Z,9.87
2017-10-15T19:13:36.786Z,9.90
2017-10-15T19:16:03.111Z,8.90
2017-10-15T19:18:29.445Z,9.57
2017-10-15T19:20:55.755Z,9.43
2017-10-15T19:23:22.063Z,9.00
2017-10-15T19:25:49.097Z,11.63
2017-10-15T19:28:15.374Z,17.90
2017-10-15T19:30:42.417Z,20.07
2017-10-15T19:35:29.903Z,10.97
2017-10-15T19:37:56.195Z,11.10
2017-10-15T19:40:22.467Z,9.97
2017-10-15T19:42:48.731Z,8.80
2017-10-15T19:45:15.000Z,8.17
2017-10-15T19:47:41.270Z,10.00
2017-10-15T19:50:07.551Z,9.40
2017-10-15T19:52:33.833Z,9.90
2017-10-15T19:55:00.807Z,9.30
2017-10-15T19:57:27.055Z,8.93
2017-10-15T19:59:53.310Z,10.60
2017-10-15T20:02:20.018Z,10.10
2017-10-15T20:04:46.264Z,9.37
2017-10-15T20:07:12.545Z,9.43
2017-10-15T20:09:39.546Z,9.20
2017-10-15T20:12:05.815Z,8.10
2017-10-15T20:14:32.079Z,8.97
2017-10-15T20:16:58.343Z,10.07
2017-10-15T20:19:24.593Z,9.20
2017-10-15T20:21:50.874Z,10.53
2017-10-15T20:24:17.879Z,7.80
2017-10-15T20:26:44.127Z,10.57
2017-10-15T20:29:10.406Z,9.20
2017-10-15T20:31:36.684Z,9.80
2017-10-15T20:34:02.945Z,9.53
2017-10-15T20:36:29.214Z,9.43
2017-10-15T20:38:56.199Z,9.83
2017-10-15T20:41:22.451Z,9.23
2017-10-15T20:43:48.715Z,11.10
2017-10-15T20:46:14.951Z,9.57
2017-10-15T20:48:41.955Z,10.47
2017-10-15T20:51:08.230Z,9.27
2017-10-15T20:53:34.491Z,10.17
2017-10-15T20:56:00.735Z,10.10
2017-10-15T20:58:27.739Z,11.20
2017-10-15T21:00:53.989Z,10.20
2017-10-15T21:03:20.350Z,10.67
2017-10-15T21:05:46.615Z,10.03
2017-10-15T21:08:12.888Z,10.70
2017-10-15T21:10:39.124Z,10.20
2017-10-15T21:13:05.403Z,10.80
2017-10-15T21:15:31.691Z,11.37
2017-10-15T21:17:57.942Z,10.63
2017-10-15T21:20:24.218Z,12.17
2017-10-15T21:22:50.498Z,11.37
2017-10-15T21:25:16.763Z,10.80
2017-10-15T21:30:16.055Z,11.17
2017-10-15T21:32:42.298Z,11.80
2017-10-15T21:35:08.579Z,10.60
2017-10-15T21:37:34.894Z,9.80
2017-10-15T21:40:01.906Z,9.97
2017-10-15T21:42:28.217Z,11.40
2017-10-15T21:44:54.472Z,10.73
2017-10-15T21:47:20.769Z,10.83
2017-10-15T21:49:47.801Z,10.80
2017-10-15T21:52:14.052Z,10.90
2017-10-15T21:54:41.058Z,11.23
2017-10-15T21:57:07.334Z,10.43
2017-10-15T21:59:34.345Z,9.90
2017-10-15T22:02:00.626Z,11.00
2017-10-15T22:04:27.091Z,10.53
2017-10-15T22:06:53.359Z,13.30
2017-10-15T22:09:19.619Z,16.37
2017-10-15T22:11:45.894Z,16.57
2017-10-15T22:14:12.143Z,11.20
2017-10-15T22:16:38.408Z,10.57
2017-10-15T22:19:04.715Z,11.60
2017-10-15T22:21:36.974Z,11.10
2017-10-15T22:24:03.243Z,10.37
2017-10-15T22:26:29.536Z,11.27
2017-10-15T22:28:56.515Z,11.17
2017-10-15T22:31:22.767Z,11.73
2017-10-15T22:33:49.043Z,11.70
2017-10-15T22:36:15.304Z,11.43
2017-10-15T22:38:41.571Z,11.33
2017-10-15T22:41:07.877Z,11.07
2017-10-15T22:43:34.168Z,11.03
2017-10-15T22:46:01.163Z,11.33
2017-10-15T22:48:34.466Z,10.37
2017-10-15T22:51:00.771Z,10.77
2017-10-15T22:53:27.035Z,9.60
2017-10-15T22:55:53.328Z,9.83
2017-10-15T22:58:19.597Z,10.60
2017-10-15T23:00:45.860Z,9.33
2017-10-15T23:03:12.152Z,14.87
2017-10-15T23:05:39.311Z,18.77
2017-10-15T23:08:06.317Z,24.37
2017-10-15T23:10:32.619Z,27.77
2017-10-15T23:12:58.872Z,13.97
2017-10-15T23:15:25.118Z,11.80
2017-10-15T23:17:51.419Z,10.70
2017-10-15T23:20:17.680Z,11.83
2017-10-15T23:22:43.942Z,10.27
2017-10-15T23:25:10.212Z,10.57
2017-10-15T23:27:37.203Z,11.80
2017-10-15T23:30:03.448Z,10.73
2017-10-15T23:32:29.746Z,12.73
2017-10-15T23:34:55.993Z,10.90
2017-10-15T23:37:22.259Z,9.70
2017-10-15T23:39:48.519Z,10.37
2017-10-15T23:42:14.796Z,11.30
2017-10-15T23:44:41.050Z,10.10
2017-10-15T23:47:07.335Z,9.90
2017-10-15T23:49:34.326Z,11.30
2017-10-15T23:52:00.574Z,10.87
2017-10-15T23:54:26.859Z,11.30
2017-10-15T23:56:53.862Z,12.30
2017-10-15T23:59:20.112Z,11.20
